Time;durP1;ratioP1;P1;durP2;ratioP2;P2;SDS_P1;SDS_P2;PMS_P1;PMS_P2;Temp;Humidity;BMP_temperature;BMP_pressure;BME280_temperature;BME280_humidity;BME280_pressure;Samples;Min_cycle;Max_cycle;Signal;HPM_P1;HPM_P2
2022/01/08 00:00:08;;;;;;;43.45;16.97;;;;;;;-0.27;65.97;100606.97;1622812;87;25864;-78
2022/01/08 00:02:39;;;;;;;40.90;16.93;;;;;;;-0.27;65.91;100597.75;1623565;87;25774;-78
2022/01/08 00:05:06;;;;;;;39.40;16.70;;;;;;;-0.29;65.90;100605.40;1636771;87;28092;-78
2022/01/08 00:07:32;;;;;;;40.17;16.70;;;;;;;-0.31;65.90;100595.00;1649951;85;25973;-78
2022/01/08 00:09:59;;;;;;;36.58;16.20;;;;;;;-0.32;65.63;100593.31;1622326;87;25761;-79
2022/01/08 00:12:25;;;;;;;38.05;15.65;;;;;;;-0.34;65.88;100595.22;1630621;87;25921;-79
2022/01/08 00:14:51;;;;;;;40.15;18.05;;;;;;;-0.36;65.96;100591.03;1659306;86;25877;-77
2022/01/08 00:17:19;;;;;;;42.98;17.12;;;;;;;-0.36;66.06;100585.30;1627662;87;28137;-78
2022/01/08 00:19:45;;;;;;;40.12;16.35;;;;;;;-0.36;66.08;100586.61;1646291;86;26460;-78
2022/01/08 00:22:11;;;;;;;36.17;15.72;;;;;;;-0.37;65.91;100584.11;1637130;87;25861;-78
2022/01/08 00:24:40;;;;;;;42.62;16.80;;;;;;;-0.38;65.83;100582.41;1626215;87;25845;-79
2022/01/08 00:27:06;;;;;;;37.70;14.10;;;;;;;-0.40;65.99;100585.64;1630711;87;26678;-78
2022/01/08 00:29:32;;;;;;;42.10;16.85;;;;;;;-0.40;65.70;100589.59;1625763;87;26968;-78
2022/01/08 00:31:59;;;;;;;40.38;17.00;;;;;;;-0.41;65.90;100586.61;1652159;86;25874;-79
2022/01/08 00:34:25;;;;;;;35.43;16.55;;;;;;;-0.42;65.82;100587.09;1629377;87;25826;-78
2022/01/08 00:36:51;;;;;;;41.70;16.97;;;;;;;-0.43;65.51;100592.47;1625524;87;26438;-78
2022/01/08 00:39:17;;;;;;;34.43;15.05;;;;;;;-0.46;65.79;100587.43;1640011;86;25399;-78
2022/01/08 00:41:45;;;;;;;40.20;16.73;;;;;;;-0.47;65.72;100585.27;1634385;86;27522;-80
2022/01/08 00:44:16;;;;;;;41.13;17.48;;;;;;;-0.51;65.59;100572.50;1635037;86;25961;-78
2022/01/08 00:46:40;;;;;;;42.75;16.45;;;;;;;-0.54;65.75;100566.14;1649718;86;26505;-78
2022/01/08 00:49:06;;;;;;;33.85;14.80;;;;;;;-0.56;65.97;100565.42;1646782;86;25834;-78
2022/01/08 00:51:32;;;;;;;41.83;16.45;;;;;;;-0.57;65.84;100565.89;1648282;86;25993;-78
2022/01/08 00:53:58;;;;;;;36.08;15.75;;;;;;;-0.60;65.91;100563.52;1641283;86;27485;-79
2022/01/08 00:56:24;;;;;;;40.45;15.23;;;;;;;-0.62;66.02;100559.31;1643061;86;25827;-78
2022/01/08 00:58:51;;;;;;;40.12;16.40;;;;;;;-0.64;65.99;100557.28;1647616;86;25984;-79
2022/01/08 01:01:17;;;;;;;39.15;15.85;;;;;;;-0.65;65.96;100563.02;1645517;86;26667;-77
2022/01/08 01:03:43;;;;;;;37.30;16.75;;;;;;;-0.66;65.90;100551.30;1648398;86;25843;-78
2022/01/08 01:06:09;;;;;;;34.70;15.30;;;;;;;-0.67;65.90;100562.29;1648509;86;27496;-78
2022/01/08 01:08:36;;;;;;;37.28;15.55;;;;;;;-0.69;65.64;100556.78;1650829;86;25887;-78
2022/01/08 01:11:02;;;;;;;33.53;14.47;;;;;;;-0.72;65.66;100555.69;1643543;86;26030;-78
2022/01/08 01:13:28;;;;;;;33.75;14.68;;;;;;;-0.74;65.76;100555.81;1647475;86;26496;-78
2022/01/08 01:15:54;;;;;;;31.73;15.48;;;;;;;-0.74;65.79;100549.23;1647358;86;25982;-78
2022/01/08 01:18:21;;;;;;;39.55;16.97;;;;;;;-0.75;65.80;100546.73;1645550;86;28264;-78
2022/01/08 01:20:47;;;;;;;35.03;16.35;;;;;;;-0.73;65.82;100546.98;1648782;86;26700;-78
2022/01/08 01:23:18;;;;;;;35.98;14.55;;;;;;;-0.72;65.91;100541.22;1644674;86;25894;-78
2022/01/08 01:25:50;;;;;;;35.35;15.93;;;;;;;-0.72;65.90;100546.02;1651979;86;25768;-78
2022/01/08 01:47:03;;;;;;;31.42;14.98;;;;;;;-0.95;64.96;100517.52;1646011;86;26501;-78
2022/01/08 01:49:37;;;;;;;31.60;13.98;;;;;;;-0.99;65.26;100509.98;1647327;86;26535;-78
2022/01/08 01:52:06;;;;;;;31.68;12.95;;;;;;;-1.01;65.25;100510.11;1654053;86;26585;-78
2022/01/08 01:54:34;;;;;;;37.95;14.35;;;;;;;-1.02;65.12;100506.26;1648800;86;26131;-78
2022/01/08 01:57:03;;;;;;;42.15;14.63;;;;;;;-1.04;65.10;100512.11;1645759;86;27472;-79
2022/01/08 01:59:32;;;;;;;37.88;14.58;;;;;;;-1.06;64.88;100514.02;1651375;86;26532;-77
2022/01/08 02:01:59;;;;;;;35.58;13.98;;;;;;;-1.08;65.03;100515.92;1649163;86;25803;-78
2022/01/08 02:04:26;;;;;;;33.60;14.83;;;;;;;-1.11;64.99;100516.98;1648400;86;26812;-78
2022/01/08 02:06:53;;;;;;;39.20;15.05;;;;;;;-1.10;65.06;100513.89;1648478;86;25826;-77
2022/01/08 02:09:19;;;;;;;32.88;13.90;;;;;;;-1.12;65.00;100509.22;1648014;86;28325;-78
2022/01/08 02:12:01;;;;;;;34.95;14.40;;;;;;;-1.14;65.03;100508.03;1648775;86;25883;-80
2022/01/08 02:14:32;;;;;;;32.20;12.70;;;;;;;-1.14;65.12;100507.19;1651223;86;25406;-78
2022/01/08 02:16:59;;;;;;;32.88;14.25;;;;;;;-1.15;65.01;100493.20;1643388;86;25995;-81
2022/01/08 02:19:26;;;;;;;36.88;12.33;;;;;;;-1.17;65.00;100491.63;1647177;86;25904;-78
2022/01/08 02:22:00;;;;;;;42.35;14.23;;;;;;;-1.19;65.11;100490.45;1648267;86;27484;-77
2022/01/08 02:24:27;;;;;;;35.78;15.68;;;;;;;-1.19;65.25;100488.29;1622353;86;26656;-79
2022/01/08 02:26:54;;;;;;;33.05;14.23;;;;;;;-1.21;65.34;100488.41;1648819;86;25939;-78
2022/01/08 02:29:24;;;;;;;30.62;13.30;;;;;;;-1.19;65.46;100486.97;1650109;86;25879;-78
2022/01/08 02:32:08;;;;;;;32.77;14.63;;;;;;;-1.21;65.27;100488.88;1651794;86;25936;-78
2022/01/08 02:34:37;;;;;;;40.12;14.18;;;;;;;-1.23;65.33;100489.00;1648687;86;28324;-79
2022/01/08 02:37:05;;;;;;;36.60;14.63;;;;;;;-1.22;65.50;100484.09;1646338;86;25901;-79
2022/01/08 02:39:38;;;;;;;30.45;14.60;;;;;;;-1.22;65.22;100481.47;1652691;86;25586;-78
2022/01/08 02:42:00;;;;;;;30.05;11.63;;;;;;;-1.24;65.04;100477.30;1651908;86;25740;-78
2022/01/08 02:44:27;;;;;;;31.25;14.45;;;;;;;-1.27;65.04;100491.50;1646551;86;26605;-79
2022/01/08 02:46:54;;;;;;;36.45;13.68;;;;;;;-1.31;65.35;100487.91;1648874;86;27464;-78
2022/01/08 02:49:23;;;;;;;34.98;14.10;;;;;;;-1.32;65.27;100479.64;1652510;86;25848;-78
2022/01/08 02:51:51;;;;;;;27.37;12.73;;;;;;;-1.34;65.29;100481.08;1644742;86;25891;-77
2022/01/08 02:54:18;;;;;;;29.30;13.75;;;;;;;-1.34;65.34;100481.08;1651257;86;25768;-78
2022/01/08 02:56:47;;;;;;;30.65;12.58;;;;;;;-1.35;65.31;100475.95;1650199;86;25937;-78
2022/01/08 02:59:14;;;;;;;30.23;13.20;;;;;;;-1.39;65.20;100475.31;1648011;86;27457;-78
2022/01/08 03:01:41;;;;;;;30.62;13.38;;;;;;;-1.42;65.04;100474.25;1647212;86;25945;-79
2022/01/08 03:04:08;;;;;;;36.88;13.15;;;;;;;-1.45;65.39;100474.97;1650784;86;25824;-77
2022/01/08 03:06:34;;;;;;;34.45;13.40;;;;;;;-1.47;65.28;100475.05;1644500;86;26558;-78
2022/01/08 03:09:01;;;;;;;35.78;13.65;;;;;;;-1.52;65.08;100471.95;1650336;86;25823;-79
2022/01/08 03:11:27;;;;;;;28.42;12.75;;;;;;;-1.57;65.10;100467.50;1650711;86;28449;-79
2022/01/08 03:13:53;;;;;;;32.45;13.60;;;;;;;-1.61;65.04;100466.91;1648476;86;25791;-78
2022/01/08 03:16:20;;;;;;;31.35;12.90;;;;;;;-1.65;65.04;100470.67;1646341;86;25887;-78
2022/01/08 03:18:48;;;;;;;31.87;13.68;;;;;;;-1.67;65.01;100469.95;1651135;86;25878;-78
2022/01/08 03:21:19;;;;;;;32.95;14.28;;;;;;;-1.68;65.20;100467.45;1648300;86;26734;-79
2022/01/08 03:23:52;;;;;;;;;;;;;;;-1.69;65.33;100468.41;1651985;86;27648;-78
2022/01/08 03:26:19;;;;;;;37.58;13.93;;;;;;;-1.69;65.67;100461.84;1651232;86;25768;-78
2022/01/08 03:28:46;;;;;;;31.93;12.40;;;;;;;-1.71;65.92;100463.25;1650861;86;25351;-78
2022/01/08 03:31:14;;;;;;;30.70;12.05;;;;;;;-1.67;66.13;100454.70;1648380;86;26946;-78
2022/01/08 03:33:41;;;;;;;37.23;14.58;;;;;;;-1.67;65.98;100452.07;1649909;86;26583;-78
2022/01/08 03:36:09;;;;;;;37.28;14.83;;;;;;;-1.66;66.05;100457.67;1649239;86;27506;-78
2022/01/08 03:38:35;;;;;;;36.40;15.20;;;;;;;-1.66;66.15;100452.41;1649432;86;25884;-78
2022/01/08 03:41:02;;;;;;;33.85;12.82;;;;;;;-1.65;66.13;100441.79;1650117;86;25737;-80
2022/01/08 03:43:29;;;;;;;38.40;15.03;;;;;;;-1.66;66.09;100439.28;1651003;86;25805;-79
2022/01/08 03:45:55;;;;;;;37.50;13.88;;;;;;;-1.68;66.10;100435.47;1647908;86;25794;-78
2022/01/08 03:48:43;;;;;;;33.08;13.43;;;;;;;-1.68;66.33;100436.78;1651862;86;28255;-78
2022/01/08 03:50:59;;;;;;;32.08;14.68;;;;;;;-1.67;66.25;100433.19;1645736;86;25804;-78
2022/01/08 03:53:27;;;;;;;35.08;13.78;;;;;;;-1.68;66.28;100430.69;1646768;86;25901;-78
2022/01/08 03:55:54;;;;;;;34.35;14.68;;;;;;;-1.68;66.38;100422.34;1651897;86;26001;-79
2022/01/08 03:58:21;;;;;;;34.53;14.05;;;;;;;-1.68;66.38;100422.34;1651806;86;25770;-78
2022/01/08 04:00:48;;;;;;;37.13;15.23;;;;;;;-1.69;66.32;100422.47;1650861;86;28284;-78
2022/01/08 04:03:18;;;;;;;37.42;14.85;;;;;;;-1.72;66.29;100430.55;1647544;86;25834;-79
2022/01/08 04:05:43;;;;;;;38.58;16.30;;;;;;;-1.71;66.42;100428.30;1646132;86;25808;-78
2022/01/08 04:08:10;;;;;;;35.48;14.78;;;;;;;-1.73;66.55;100425.77;1649135;86;25816;-78
2022/01/08 04:10:36;;;;;;;34.78;15.15;;;;;;;-1.74;66.68;100420.17;1650066;86;25929;-78
2022/01/08 04:13:09;;;;;;;35.88;14.85;;;;;;;-1.77;66.77;100422.17;1647128;86;27447;-79
2022/01/08 04:15:33;;;;;;;30.17;14.55;;;;;;;-1.78;66.79;100422.67;1645073;86;25904;-79
2022/01/08 04:17:59;;;;;;;34.23;15.38;;;;;;;-1.80;66.86;100423.72;1649376;86;25828;-78
2022/01/08 04:20:28;;;;;;;38.50;15.15;;;;;;;-1.81;66.92;100423.34;1652301;86;26811;-79
2022/01/08 04:22:54;;;;;;;35.03;14.60;;;;;;;-1.83;66.93;100425.25;1648925;86;26032;-79
2022/01/08 04:25:22;;;;;;;45.10;15.60;;;;;;;-1.85;66.88;100422.75;1647393;86;27461;-78
2022/01/08 04:27:49;;;;;;;42.33;15.40;;;;;;;-1.88;66.86;100420.33;1641658;86;25856;-78
2022/01/08 04:30:16;;;;;;;35.00;15.90;;;;;;;-1.90;67.17;100417.45;1652650;85;25734;-79
2022/01/08 04:32:43;;;;;;;33.40;14.75;;;;;;;-1.92;67.19;100416.27;1650377;86;26559;-78
2022/01/08 04:35:10;;;;;;;38.30;15.85;;;;;;;-1.93;67.20;100419.00;1650590;86;25615;-78
2022/01/08 04:37:36;;;;;;;35.98;15.13;;;;;;;-1.94;67.29;100415.53;1643638;86;27637;-79
2022/01/08 04:40:04;;;;;;;35.83;13.95;;;;;;;-1.96;67.29;100422.69;1646521;86;26670;-79
2022/01/08 04:42:30;;;;;;;45.35;17.70;;;;;;;-1.97;67.42;100417.56;1644907;86;26303;-78
2022/01/08 04:44:58;;;;;;;33.33;14.05;;;;;;;-1.98;67.32;100420.66;1651384;86;25802;-81
2022/01/08 04:47:25;;;;;;;37.15;16.30;;;;;;;-2.00;67.31;100412.52;1649600;86;25907;-78
2022/01/08 04:49:51;;;;;;;36.95;17.70;;;;;;;-2.02;67.48;100406.08;1650177;86;27970;-78
2022/01/08 04:52:17;;;;;;;35.50;15.95;;;;;;;-2.03;67.34;100418.02;1645793;86;26125;-79
2022/01/08 04:54:43;;;;;;;37.67;15.68;;;;;;;-2.07;67.33;100409.50;1649156;86;26101;-78
2022/01/08 04:57:09;;;;;;;35.60;15.72;;;;;;;-2.09;67.36;100398.28;1646075;86;25902;-78
2022/01/08 04:59:36;;;;;;;38.48;17.42;;;;;;;-2.10;67.39;100397.94;1645545;86;25300;-78
2022/01/08 05:02:02;;;;;;;41.95;16.70;;;;;;;-2.12;67.30;100405.09;1647960;86;27453;-78
2022/01/08 05:04:28;;;;;;;40.00;17.15;;;;;;;-2.13;67.49;100405.17;1644117;86;26499;-78
2022/01/08 05:06:55;;;;;;;38.05;15.78;;;;;;;-2.13;67.75;100398.15;1645776;86;25822;-78
2022/01/08 05:09:21;;;;;;;42.43;18.27;;;;;;;-2.14;67.62;100407.45;1646242;86;25831;-77
2022/01/08 05:11:48;;;;;;;39.30;17.32;;;;;;;-2.15;67.76;100404.45;1645087;86;26286;-78
2022/01/08 05:14:14;;;;;;;42.55;17.20;;;;;;;-2.14;67.75;100400.42;1647548;86;27556;-78
2022/01/08 05:16:42;;;;;;;43.05;17.15;;;;;;;-2.14;67.94;100400.89;1649258;86;25984;-78
2022/01/08 05:19:08;;;;;;;43.68;17.90;;;;;;;-2.12;68.04;100409.02;1651177;86;25857;-78
2022/01/08 05:21:38;;;;;;;42.17;17.10;;;;;;;-2.11;67.87;100399.34;1648521;86;25979;-78
2022/01/08 05:24:03;;;;;;;36.75;16.97;;;;;;;-2.11;68.09;100398.87;1645084;86;25763;-78
2022/01/08 05:26:29;;;;;;;40.73;17.48;;;;;;;-2.13;67.99;100398.15;1649114;86;27687;-78
2022/01/08 05:28:56;;;;;;;39.80;16.17;;;;;;;-2.13;68.04;100393.36;1647324;86;25887;-78
2022/01/08 05:31:23;;;;;;;44.25;17.12;;;;;;;-2.14;67.95;100397.80;1627944;87;25760;-78
2022/01/08 05:33:51;;;;;;;37.28;16.27;;;;;;;-2.17;68.01;100398.01;1624672;87;25935;-78
2022/01/08 05:36:18;;;;;;;40.10;17.50;;;;;;;-2.14;68.30;100403.05;1628307;87;25926;-78
2022/01/08 05:38:44;;;;;;;40.85;16.52;;;;;;;-2.13;68.25;100405.17;1626779;87;27656;-78
2022/01/08 05:41:11;;;;;;;39.75;16.32;;;;;;;-2.14;68.33;100402.20;1629326;87;25922;-78
2022/01/08 05:43:37;;;;;;;35.80;15.55;;;;;;;-2.14;68.32;100395.17;1639943;86;25921;-77
2022/01/08 05:46:03;;;;;;;41.37;17.23;;;;;;;-2.12;68.49;100394.59;1639172;86;25823;-78
2022/01/08 05:48:29;;;;;;;36.75;16.12;;;;;;;-2.11;68.53;100392.31;1638127;86;26426;-77
2022/01/08 05:50:55;;;;;;;37.93;16.90;;;;;;;-2.10;68.53;100392.69;1638546;86;27506;-79
2022/01/08 05:53:22;;;;;;;43.30;18.15;;;;;;;-2.11;68.54;100388.84;1639805;86;25884;-78
2022/01/08 05:55:49;;;;;;;38.58;17.10;;;;;;;-2.10;68.68;100390.06;1641161;86;25920;-78
2022/01/08 05:58:15;;;;;;;35.95;15.45;;;;;;;-2.08;68.71;100397.81;1640796;86;25848;-78
2022/01/08 06:00:42;;;;;;;42.88;17.77;;;;;;;-2.09;68.78;100395.66;1637444;86;26650;-78
2022/01/08 06:03:09;;;;;;;37.28;16.55;;;;;;;-2.08;68.91;100396.03;1634302;86;27674;-78
2022/01/08 06:05:35;;;;;;;39.45;16.50;;;;;;;-2.07;68.70;100399.47;1642847;86;25898;-78
2022/01/08 06:08:01;;;;;;;42.40;17.65;;;;;;;-2.09;68.65;100393.50;1633250;86;25796;-78
2022/01/08 06:10:27;;;;;;;41.95;17.07;;;;;;;-2.09;68.66;100398.28;1636756;86;26497;-78
2022/01/08 06:12:54;;;;;;;44.93;18.75;;;;;;;-2.08;68.78;100392.56;1624321;86;25430;-79
2022/01/08 06:15:20;;;;;;;44.27;18.50;;;;;;;-2.09;68.58;100394.34;1636363;86;28354;-78
2022/01/08 06:17:47;;;;;;;40.25;17.50;;;;;;;-2.09;68.66;100398.28;1637321;86;25808;-78
2022/01/08 06:20:13;;;;;;;46.23;18.95;;;;;;;-2.10;68.71;100399.72;1638142;86;25903;-78
2022/01/08 06:22:39;;;;;;;45.17;19.00;;;;;;;-2.11;68.63;100401.49;1637758;86;26379;-78
2022/01/08 06:25:06;;;;;;;46.00;19.27;;;;;;;-2.12;68.59;100394.59;1635784;86;26231;-78
2022/01/08 06:27:33;;;;;;;51.15;20.80;;;;;;;-2.12;68.58;100395.91;1638323;86;27467;-78
2022/01/08 06:29:59;;;;;;;43.10;20.17;;;;;;;-2.13;68.57;100392.05;1638860;86;25813;-78
2022/01/08 06:32:25;;;;;;;42.60;18.40;;;;;;;-2.16;68.37;100390.98;1639733;86;25833;-77
2022/01/08 06:34:52;;;;;;;44.83;20.72;;;;;;;-2.18;68.48;100391.57;1636902;85;25910;-79
2022/01/08 06:37:18;;;;;;;45.52;19.17;;;;;;;-2.19;68.42;100398.59;1634315;86;25873;-78
2022/01/08 06:39:44;;;;;;;45.03;18.82;;;;;;;-2.21;68.59;100397.88;1647927;86;28275;-78
2022/01/08 06:42:10;;;;;;;43.25;17.90;;;;;;;-2.21;68.53;100399.65;1629622;86;26527;-78
2022/01/08 06:44:37;;;;;;;42.08;18.60;;;;;;;-2.24;68.48;100395.92;1630885;87;25943;-78
2022/01/08 06:47:03;;;;;;;46.48;19.00;;;;;;;-2.25;68.60;100390.33;1627735;87;26553;-78
2022/01/08 06:49:30;;;;;;;47.27;19.85;;;;;;;-2.27;68.63;100389.61;1630491;87;25824;-78
2022/01/08 06:51:56;;;;;;;39.08;17.70;;;;;;;-2.28;68.54;100387.45;1642587;86;27584;-80
2022/01/08 06:54:22;;;;;;;40.25;17.52;;;;;;;-2.30;68.60;100391.97;1645674;86;25898;-78
2022/01/08 06:56:49;;;;;;;43.45;18.27;;;;;;;-2.31;68.37;100388.16;1638848;86;25903;-78
2022/01/08 06:59:17;;;;;;;47.48;19.65;;;;;;;-2.30;68.63;100391.12;1645011;86;26644;-78
2022/01/08 07:01:43;;;;;;;42.43;18.67;;;;;;;-2.35;68.49;100386.20;1644322;86;25784;-79
2022/01/08 07:04:09;;;;;;;42.55;17.98;;;;;;;-2.35;68.49;100386.20;1653642;86;27467;-78
2022/01/08 07:06:35;;;;;;;42.53;18.65;;;;;;;-2.37;68.92;100384.16;1646059;86;25883;-78
2022/01/08 07:09:03;;;;;;;49.30;20.55;;;;;;;-2.37;68.92;100384.16;1651831;86;25313;-78
2022/01/08 07:11:29;;;;;;;45.52;20.10;;;;;;;-2.39;68.60;100372.95;1649603;86;26556;-78
2022/01/08 07:13:55;;;;;;;66.65;27.58;;;;;;;-2.39;68.63;100374.27;1649732;86;25786;-78
2022/01/08 07:16:21;;;;;;;56.28;24.23;;;;;;;-2.36;68.70;100380.61;1648008;86;28024;-78
2022/01/08 07:18:48;;;;;;;45.17;21.12;;;;;;;-2.35;68.73;100380.49;1647697;86;25855;-80
2022/01/08 07:21:14;;;;;;;49.00;20.25;;;;;;;-2.31;68.91;100382.91;1647886;86;25716;-80
2022/01/08 07:23:40;;;;;;;47.62;20.50;;;;;;;-2.29;68.90;100378.38;1655036;86;26758;-78
2022/01/08 07:26:06;;;;;;;42.83;18.25;;;;;;;-2.26;68.79;100384.70;1650532;86;26045;-78
2022/01/08 07:28:32;;;;;;;45.90;19.30;;;;;;;-2.25;68.79;100384.62;1647200;86;27475;-79
2022/01/08 07:30:59;;;;;;;46.25;19.73;;;;;;;-2.25;68.80;100391.17;1646042;86;25845;-80
2022/01/08 07:33:27;;;;;;;51.50;20.90;;;;;;;-2.21;68.80;100387.84;1644343;86;25433;-78
2022/01/08 07:35:53;;;;;;;57.08;22.62;;;;;;;-2.19;68.68;100376.77;1650387;86;26767;-78
2022/01/08 07:38:19;;;;;;;42.23;19.20;;;;;;;-2.17;68.59;100377.48;1649243;86;25811;-78
2022/01/08 07:40:50;;;;;;;46.30;18.85;;;;;;;-2.15;68.54;100380.83;1648309;86;27627;-78
2022/01/08 07:43:14;;;;;;;46.05;20.52;;;;;;;-2.14;68.49;100382.06;1644043;86;25983;-78
2022/01/08 07:45:40;;;;;;;45.43;18.67;;;;;;;-2.12;68.33;100385.41;1647777;86;25813;-79
2022/01/08 07:48:06;;;;;;;44.55;18.98;;;;;;;-2.08;68.43;100384.70;1649135;86;25822;-77
2022/01/08 07:50:32;;;;;;;46.98;17.67;;;;;;;-2.05;68.61;100382.67;1650995;86;25899;-78
2022/01/08 07:52:59;;;;;;;63.83;30.40;;;;;;;-2.04;68.30;100379.58;1647613;86;28246;-78
2022/01/08 07:55:25;;;;;;;46.00;22.42;;;;;;;-2.05;68.46;100371.36;1652677;86;25784;-78
2022/01/08 07:57:51;;;;;;;86.85;30.15;;;;;;;-2.05;68.46;100371.36;1650733;86;26309;-79
2022/01/08 08:00:17;;;;;;;72.03;34.18;;;;;;;-1.97;68.41;100381.66;1645926;86;26259;-78
2022/01/08 08:02:44;;;;;;;151.12;63.10;;;;;;;-1.96;68.15;100375.91;1636725;86;25909;-78
2022/01/08 08:05:10;;;;;;;68.05;34.58;;;;;;;-1.99;68.18;100373.03;1646489;86;27489;-77
2022/01/08 08:07:37;;;;;;;70.75;33.98;;;;;;;-1.95;68.26;100382.85;1649021;86;26071;-77
2022/01/08 08:10:10;;;;;;;49.77;22.87;;;;;;;-1.94;68.36;100384.04;1648509;86;26168;-78
2022/01/08 08:12:38;;;;;;;48.92;24.18;;;;;;;-1.90;68.40;100380.70;1652301;86;25946;-78
2022/01/08 08:15:06;;;;;;;49.00;21.25;;;;;;;-1.86;68.58;100387.43;1648109;86;25983;-78
2022/01/08 08:17:34;;;;;;;49.80;21.77;;;;;;;-1.86;68.21;100386.93;1647845;86;27467;-79
2022/01/08 08:20:02;;;;;;;88.03;46.90;;;;;;;-1.83;68.54;100384.09;1647709;86;25739;-78
2022/01/08 08:22:29;;;;;;;63.75;31.35;;;;;;;-1.80;68.04;100379.09;1647719;86;25862;-78
2022/01/08 08:24:55;;;;;;;47.73;22.95;;;;;;;-1.77;68.44;100385.41;1641904;86;26571;-78
2022/01/08 08:27:21;;;;;;;48.55;21.57;;;;;;;-1.71;68.59;100379.23;1651103;86;26666;-78
2022/01/08 08:29:47;;;;;;;58.15;22.35;;;;;;;-1.67;68.36;100377.23;1642559;86;27467;-78
2022/01/08 08:32:14;;;;;;;47.48;22.20;;;;;;;-1.62;68.30;100375.08;1644479;86;25880;-78
2022/01/08 08:34:40;;;;;;;52.90;25.45;;;;;;;-1.59;68.28;100368.30;1650078;86;25756;-77
2022/01/08 08:37:06;;;;;;;50.73;23.47;;;;;;;-1.53;68.43;100370.92;1646375;86;25998;-78
2022/01/08 08:39:32;;;;;;;53.52;26.95;;;;;;;-1.51;68.11;100367.70;1645469;86;26392;-79
2022/01/08 08:41:59;;;;;;;50.63;25.02;;;;;;;-1.46;68.38;100370.83;1647433;86;27750;-78
2022/01/08 08:44:25;;;;;;;48.85;24.90;;;;;;;-1.42;68.24;100374.43;1644473;86;25817;-78
2022/01/08 08:46:51;;;;;;;49.27;22.45;;;;;;;-1.36;68.29;100376.58;1646640;86;25889;-78
2022/01/08 08:49:17;;;;;;;49.90;24.50;;;;;;;-1.29;68.49;100376.95;1645147;86;26676;-78
2022/01/08 08:51:43;;;;;;;46.75;20.97;;;;;;;-1.23;68.43;100372.54;1651729;86;25905;-78
2022/01/08 08:54:10;;;;;;;53.40;29.27;;;;;;;-1.16;68.43;100383.80;1651676;86;27501;-77
2022/01/08 08:56:38;;;;;;;44.53;19.65;;;;;;;-1.12;68.45;100376.03;1647267;86;26613;-78
2022/01/08 08:59:04;;;;;;;48.90;28.38;;;;;;;-1.07;68.22;100376.49;1640658;86;25891;-78
2022/01/08 09:01:30;;;;;;;44.13;21.80;;;;;;;-1.01;68.38;100374.73;1648698;86;26644;-79
2022/01/08 09:03:57;;;;;;;44.50;20.25;;;;;;;-0.93;68.35;100376.75;1649499;86;25944;-80
2022/01/08 09:06:26;;;;;;;36.63;17.42;;;;;;;-0.89;68.49;100369.82;1652205;86;27484;-77
2022/01/08 09:08:52;;;;;;;38.15;18.70;;;;;;;-0.83;67.67;100380.33;1652734;86;25899;-78
2022/01/08 09:11:18;;;;;;;38.70;17.95;;;;;;;-0.81;67.89;100377.09;1648721;86;26111;-79
2022/01/08 09:13:44;;;;;;;43.55;24.00;;;;;;;-0.76;68.35;100373.64;1648653;86;26682;-79
2022/01/08 09:16:11;;;;;;;48.33;23.02;;;;;;;-0.72;68.26;100376.85;1654644;86;26423;-79
2022/01/08 09:18:39;;;;;;;41.88;20.32;;;;;;;-0.70;68.21;100374.47;1647835;86;28292;-79
2022/01/08 09:21:06;;;;;;;49.25;22.32;;;;;;;-0.67;68.12;100379.97;1648271;86;25567;-78
2022/01/08 09:23:33;;;;;;;51.30;24.57;;;;;;;-0.68;67.77;100385.70;1643602;86;26078;-78
2022/01/08 09:26:01;;;;;;;47.25;24.50;;;;;;;-0.68;67.91;100390.95;1650427;86;25852;-78
2022/01/08 09:28:28;;;;;;;41.37;18.70;;;;;;;-0.65;68.01;100389.42;1644923;86;25980;-79
2022/01/08 09:30:56;;;;;;;45.38;19.52;;;;;;;-0.64;67.88;100388.44;1646459;86;27473;-78
2022/01/08 09:33:23;;;;;;;42.70;20.37;;;;;;;-0.62;68.08;100381.77;1648083;86;26337;-78
2022/01/08 09:35:50;;;;;;;50.80;26.10;;;;;;;-0.59;68.25;100379.72;1649786;86;25930;-79
2022/01/08 09:38:16;;;;;;;42.67;19.90;;;;;;;-0.59;67.89;100377.09;1649256;86;25937;-77
2022/01/08 09:40:43;;;;;;;43.15;22.22;;;;;;;-0.60;67.52;100375.44;1641071;86;26589;-77
2022/01/08 09:43:10;;;;;;;38.65;18.67;;;;;;;-0.60;67.94;100375.91;1648459;86;27728;-79
2022/01/08 09:45:36;;;;;;;37.03;18.37;;;;;;;-0.61;67.92;100375.06;1649176;86;25784;-77
2022/01/08 09:48:02;;;;;;;44.15;20.02;;;;;;;-0.60;67.74;100369.33;1650273;86;25781;-78
2022/01/08 09:50:29;;;;;;;45.23;25.45;;;;;;;-0.63;68.03;100372.19;1646819;86;25813;-78
2022/01/08 09:52:57;;;;;;;42.50;21.00;;;;;;;-0.61;68.25;100368.48;1651931;86;25942;-78
2022/01/08 09:55:29;;;;;;;45.05;23.55;;;;;;;-0.58;68.38;100363.47;1621610;86;28298;-78
2022/01/08 09:57:56;;;;;;;47.53;26.73;;;;;;;-0.56;68.49;100363.71;1657995;86;26506;-79
2022/01/08 10:00:24;;;;;;;39.30;20.00;;;;;;;-0.51;68.59;100354.95;1648900;86;25832;-78
2022/01/08 10:02:52;;;;;;;47.38;20.27;;;;;;;-0.47;68.60;100347.67;1646765;86;25924;-79
2022/01/08 10:05:18;;;;;;;37.73;18.32;;;;;;;-0.43;68.94;100342.05;1647885;86;26539;-78
2022/01/08 10:07:59;;;;;;;50.52;20.60;;;;;;;-0.40;68.36;100339.14;1647736;86;27461;-78
2022/01/08 10:10:27;;;;;;;45.10;19.73;;;;;;;-0.36;68.81;100338.41;1654401;86;25988;-78
2022/01/08 10:12:59;;;;;;;41.18;18.45;;;;;;;-0.32;68.71;100332.78;1645083;86;25852;-78
2022/01/08 10:18:36;;;;;;;40.43;19.85;;;;;;;-0.23;68.94;100324.62;1643594;86;26551;-78
2022/01/08 10:21:24;;;;;;;41.98;20.52;;;;;;;-0.18;69.12;100321.98;1648840;86;27436;-78
2022/01/08 10:24:03;;;;;;;40.90;20.02;;;;;;;-0.15;69.14;100304.60;1640753;86;25880;-78
2022/01/08 10:26:37;;;;;;;40.05;20.35;;;;;;;-0.13;68.76;100297.41;1647351;86;25840;-78
2022/01/08 10:29:07;;;;;;;38.65;19.67;;;;;;;-0.10;68.96;100301.59;1646609;86;25847;-78
2022/01/08 10:31:41;;;;;;;43.58;19.80;;;;;;;-0.07;69.17;100309.25;1620351;87;26533;-78
2022/01/08 10:34:20;;;;;;;37.90;18.35;;;;;;;-0.07;69.06;100305.31;1644048;86;26879;-78
2022/01/08 10:37:07;;;;;;;42.10;20.92;;;;;;;-0.04;69.14;100305.03;1646637;86;25647;-78
2022/01/08 10:39:41;;;;;;;45.95;22.55;;;;;;;0.00;69.35;100311.75;1648965;86;25782;-79
2022/01/08 10:42:15;;;;;;;43.60;23.67;;;;;;;0.04;69.30;100312.31;1651842;86;26631;-79
2022/01/08 10:44:44;;;;;;;47.50;22.15;;;;;;;0.06;69.22;100308.60;1647602;86;26116;-78
2022/01/08 10:47:16;;;;;;;47.53;21.35;;;;;;;0.07;69.20;100315.52;1651207;86;28312;-79
2022/01/08 10:50:00;;;;;;;45.00;20.52;;;;;;;0.09;69.38;100311.44;1648252;86;25804;-77
2022/01/08 10:52:27;;;;;;;46.68;21.75;;;;;;;0.12;69.48;100301.50;1648020;86;25371;-78
2022/01/08 10:55:00;;;;;;;42.55;21.90;;;;;;;0.15;69.39;100304.37;1646887;86;25995;-78
2022/01/08 10:57:41;;;;;;;42.35;21.73;;;;;;;0.13;69.27;100299.20;1652567;86;26521;-79
2022/01/08 11:00:14;;;;;;;41.65;20.62;;;;;;;0.13;69.22;100304.98;1648999;86;27556;-78
2022/01/08 11:02:43;;;;;;;42.27;21.82;;;;;;;0.14;69.39;100310.11;1643850;86;25882;-78
2022/01/08 11:05:11;;;;;;;42.98;21.17;;;;;;;0.16;69.57;100304.70;1649507;86;25886;-78
2022/01/08 11:07:42;;;;;;;43.48;21.17;;;;;;;0.15;69.33;100309.13;1652770;86;26567;-77
2022/01/08 11:10:16;;;;;;;31.75;17.20;;;;;;;0.13;69.17;100311.06;1645481;86;25809;-77
2022/01/08 11:12:42;;;;;;;39.40;20.37;;;;;;;0.10;68.90;100311.33;1645493;86;27719;-77
2022/01/08 11:17:46;;;;;;;48.63;21.65;;;;;;;0.09;69.16;100310.12;1647183;86;25844;-77
2022/01/08 11:20:19;;;;;;;53.95;31.20;;;;;;;0.09;69.45;100304.85;1650235;86;26683;-77
2022/01/08 11:22:49;;;;;;;44.55;22.48;;;;;;;0.12;69.69;100301.50;1641938;86;25995;-77
2022/01/08 11:25:21;;;;;;;49.10;22.30;;;;;;;0.13;69.81;100296.57;1647543;86;27474;-77
2022/01/08 11:27:58;;;;;;;37.05;19.85;;;;;;;0.16;69.97;100290.22;1638005;86;25839;-78
2022/01/08 11:30:29;;;;;;;53.73;23.83;;;;;;;0.19;69.92;100292.14;1628541;87;25991;-77
2022/01/08 11:33:03;;;;;;;50.67;22.75;;;;;;;0.20;69.82;100291.63;1625739;86;25797;-78
2022/01/08 11:35:30;;;;;;;50.20;24.92;;;;;;;0.20;69.92;100288.52;1647061;86;26606;-78